Austin, Texas
Traffic Map
Current Weather Conditions
Austin, Texas
Scattered Clouds
Scattered Clouds
23°
Feels Like: 23°
Wind Chill: 23° Ceiling: Unl
Heat Index: 23° Visibility: 10mi
Dew Point: 21° Wind: 5mph
Humidity: 87% Direction: ° ()
Pressure: 29.92in Gusts: 0mph
Raw Report DataKATT 250508Z AUTO VRB04KT 10SM SCT013 SCT020 23/21 A2992 RMK AO2 T02280206
Traffic Incident Summary
Active as of:
Severity:
Category:
InformationThere was an issue retrieving the traffic information for this location. Please try a different location or try again shortly.
Advertisements
Track Severe Weather on mobile